sensor_id;sensor_type;location;lat;lon;timestamp;P1;durP1;ratioP1;P2;durP2;ratioP2
50651;SDS011;66928;52.086;5.240;2023-05-10T05:48:08;51.3;;;38.21;;
50651;SDS011;66928;52.086;5.240;2023-05-10T05:49:46;50.1;;;37.71;;
50651;SDS011;66928;52.086;5.240;2023-05-10T05:51:24;49.8;;;37.4;;
50651;SDS011;66928;52.086;5.240;2023-05-10T05:54:37;49.5;;;36.71;;
50651;SDS011;66928;52.086;5.240;2023-05-10T05:56:14;51.7;;;37.9;;
50651;SDS011;66928;52.086;5.240;2023-05-10T05:57:52;52.9;;;38.1;;
50651;SDS011;66928;52.086;5.240;2023-05-10T05:59:30;50.3;;;37.1;;
50651;SDS011;66928;52.086;5.240;2023-05-10T06:02:45;55.6;;;40.0;;
50651;SDS011;66928;52.086;5.240;2023-05-10T06:04:23;58.3;;;40.71;;
50651;SDS011;66928;52.086;5.240;2023-05-10T06:06:01;55.8;;;41.3;;
50651;SDS011;66928;52.086;5.240;2023-05-10T06:10:53;55.5;;;39.9;;
50651;SDS011;66928;52.086;5.240;2023-05-10T06:12:30;52.1;;;38.1;;
50651;SDS011;66928;52.086;5.240;2023-05-10T06:14:08;49.5;;;36.6;;
50651;SDS011;66928;52.086;5.240;2023-05-10T06:17:23;47.7;;;34.9;;
50651;SDS011;66928;52.086;5.240;2023-05-10T06:19:01;55.1;;;37.9;;
50651;SDS011;66928;52.086;5.240;2023-05-10T06:20:38;48.7;;;34.71;;
50651;SDS011;66928;52.086;5.240;2023-05-10T06:23:55;47.8;;;33.71;;
50651;SDS011;66928;52.086;5.240;2023-05-10T06:25:33;42.9;;;32.71;;
50651;SDS011;66928;52.086;5.240;2023-05-10T06:27:11;42.9;;;32.71;;
50651;SDS011;66928;52.086;5.240;2023-05-10T06:28:49;34.21;;;25.4;;
50651;SDS011;66928;52.086;5.240;2023-05-10T06:32:04;30.1;;;23.4;;
50651;SDS011;66928;52.086;5.240;2023-05-10T06:33:41;28.6;;;22.4;;
50651;SDS011;66928;52.086;5.240;2023-05-10T06:35:19;28.5;;;21.9;;
50651;SDS011;66928;52.086;5.240;2023-05-10T06:38:35;26.7;;;20.8;;
50651;SDS011;66928;52.086;5.240;2023-05-10T06:40:13;23.5;;;20.0;;
50651;SDS011;66928;52.086;5.240;2023-05-10T06:43:28;22.8;;;18.5;;
50651;SDS011;66928;52.086;5.240;2023-05-10T06:46:44;22.7;;;17.91;;
50651;SDS011;66928;52.086;5.240;2023-05-10T06:48:21;22.2;;;17.11;;
50651;SDS011;66928;52.086;5.240;2023-05-10T06:49:58;19.7;;;16.3;;
50651;SDS011;66928;52.086;5.240;2023-05-10T06:53:11;20.8;;;15.6;;
50651;SDS011;66928;52.086;5.240;2023-05-10T06:54:49;17.2;;;15.1;;
50651;SDS011;66928;52.086;5.240;2023-05-10T06:56:26;17.61;;;14.6;;
50651;SDS011;66928;52.086;5.240;2023-05-10T06:58:03;17.11;;;14.1;;
50651;SDS011;66928;52.086;5.240;2023-05-10T07:01:18;15.9;;;13.1;;
50651;SDS011;66928;52.086;5.240;2023-05-10T07:02:56;15.3;;;13.0;;
50651;SDS011;66928;52.086;5.240;2023-05-10T07:04:32;16.0;;;13.9;;
50651;SDS011;66928;52.086;5.240;2023-05-10T07:07:45;16.61;;;13.7;;
50651;SDS011;66928;52.086;5.240;2023-05-10T07:09:23;16.2;;;13.9;;
50651;SDS011;66928;52.086;5.240;2023-05-10T07:11:01;15.1;;;13.1;;
50651;SDS011;66928;52.086;5.240;2023-05-10T07:12:40;15.0;;;12.7;;
50651;SDS011;66928;52.086;5.240;2023-05-10T07:15:56;17.41;;;12.9;;
50651;SDS011;66928;52.086;5.240;2023-05-10T07:17:33;15.5;;;12.9;;
50651;SDS011;66928;52.086;5.240;2023-05-10T07:19:11;16.4;;;13.4;;
50651;SDS011;66928;52.086;5.240;2023-05-10T07:22:26;13.5;;;11.1;;
50651;SDS011;66928;52.086;5.240;2023-05-10T07:24:04;13.4;;;11.9;;
50651;SDS011;66928;52.086;5.240;2023-05-10T07:25:41;13.4;;;11.4;;
50651;SDS011;66928;52.086;5.240;2023-05-10T07:27:19;13.9;;;12.1;;
50651;SDS011;66928;52.086;5.240;2023-05-10T07:30:33;14.9;;;12.3;;
50651;SDS011;66928;52.086;5.240;2023-05-10T07:32:11;13.4;;;12.0;;
50651;SDS011;66928;52.086;5.240;2023-05-10T07:33:47;16.11;;;11.9;;
50651;SDS011;66928;52.086;5.240;2023-05-10T07:37:02;13.0;;;11.6;;
50651;SDS011;66928;52.086;5.240;2023-05-10T07:38:40;14.5;;;11.3;;
50651;SDS011;66928;52.086;5.240;2023-05-10T07:40:18;13.8;;;11.9;;
50651;SDS011;66928;52.086;5.240;2023-05-10T07:41:55;13.3;;;11.9;;
50651;SDS011;66928;52.086;5.240;2023-05-10T07:45:11;13.7;;;12.1;;
50651;SDS011;66928;52.086;5.240;2023-05-10T07:46:48;13.4;;;12.0;;
50651;SDS011;66928;52.086;5.240;2023-05-10T07:48:26;14.5;;;11.7;;
50651;SDS011;66928;52.086;5.240;2023-05-10T07:51:40;12.2;;;10.6;;
50651;SDS011;66928;52.086;5.240;2023-05-10T07:53:18;14.3;;;11.4;;
50651;SDS011;66928;52.086;5.240;2023-05-10T07:54:55;13.0;;;11.6;;
50651;SDS011;66928;52.086;5.240;2023-05-10T07:58:09;13.3;;;11.3;;
50651;SDS011;66928;52.086;5.240;2023-05-10T07:59:46;14.2;;;11.4;;
50651;SDS011;66928;52.086;5.240;2023-05-10T08:01:24;13.6;;;12.0;;
50651;SDS011;66928;52.086;5.240;2023-05-10T08:03:03;13.9;;;11.3;;
50651;SDS011;66928;52.086;5.240;2023-05-10T08:06:17;13.1;;;11.7;;
50651;SDS011;66928;52.086;5.240;2023-05-10T08:07:55;14.4;;;12.2;;
50651;SDS011;66928;52.086;5.240;2023-05-10T08:09:33;13.3;;;11.9;;
50651;SDS011;66928;52.086;5.240;2023-05-10T08:12:48;13.2;;;11.5;;
50651;SDS011;66928;52.086;5.240;2023-05-10T08:14:25;13.9;;;11.3;;
50651;SDS011;66928;52.086;5.240;2023-05-10T08:16:04;13.2;;;11.8;;
50651;SDS011;66928;52.086;5.240;2023-05-10T08:17:42;13.3;;;11.4;;
50651;SDS011;66928;52.086;5.240;2023-05-10T08:20:58;13.9;;;11.9;;
50651;SDS011;66928;52.086;5.240;2023-05-10T08:22:35;12.5;;;11.2;;
50651;SDS011;66928;52.086;5.240;2023-05-10T08:24:12;13.1;;;11.3;;
50651;SDS011;66928;52.086;5.240;2023-05-10T08:27:26;14.0;;;11.4;;
50651;SDS011;66928;52.086;5.240;2023-05-10T08:29:04;14.2;;;12.0;;
50651;SDS011;66928;52.086;5.240;2023-05-10T08:30:40;14.0;;;12.0;;
50651;SDS011;66928;52.086;5.240;2023-05-10T08:32:18;12.7;;;11.2;;
50651;SDS011;66928;52.086;5.240;2023-05-10T08:35:33;12.5;;;11.2;;
50651;SDS011;66928;52.086;5.240;2023-05-10T08:37:11;12.9;;;11.4;;
50651;SDS011;66928;52.086;5.240;2023-05-10T08:38:49;14.6;;;12.1;;
50651;SDS011;66928;52.086;5.240;2023-05-10T08:42:06;14.2;;;11.6;;
50651;SDS011;66928;52.086;5.240;2023-05-10T08:43:46;12.5;;;11.2;;
50651;SDS011;66928;52.086;5.240;2023-05-10T08:45:25;14.3;;;11.2;;
50651;SDS011;66928;52.086;5.240;2023-05-10T08:47:08;13.2;;;11.8;;
50651;SDS011;66928;52.086;5.240;2023-05-10T08:50:27;12.9;;;11.6;;
50651;SDS011;66928;52.086;5.240;2023-05-10T08:52:06;13.2;;;11.5;;
50651;SDS011;66928;52.086;5.240;2023-05-10T08:53:44;12.0;;;10.7;;
50651;SDS011;66928;52.086;5.240;2023-05-10T08:55:22;14.2;;;12.0;;
50651;SDS011;66928;52.086;5.240;2023-05-10T08:58:38;12.3;;;11.0;;
50651;SDS011;66928;52.086;5.240;2023-05-10T09:00:15;12.7;;;10.7;;
50651;SDS011;66928;52.086;5.240;2023-05-10T09:01:55;12.3;;;11.0;;
50651;SDS011;66928;52.086;5.240;2023-05-10T09:03:34;12.5;;;10.9;;
50651;SDS011;66928;52.086;5.240;2023-05-10T09:06:48;12.6;;;11.1;;
50651;SDS011;66928;52.086;5.240;2023-05-10T09:08:26;12.4;;;11.1;;
50651;SDS011;66928;52.086;5.240;2023-05-10T09:10:05;12.7;;;11.3;;
50651;SDS011;66928;52.086;5.240;2023-05-10T09:13:21;11.5;;;9.9;;
50651;SDS011;66928;52.086;5.240;2023-05-10T09:15:00;11.8;;;10.6;;
50651;SDS011;66928;52.086;5.240;2023-05-10T09:16:39;12.0;;;10.4;;
50651;SDS011;66928;52.086;5.240;2023-05-10T09:18:18;11.6;;;10.4;;
50651;SDS011;66928;52.086;5.240;2023-05-10T09:21:36;11.5;;;10.3;;
50651;SDS011;66928;52.086;5.240;2023-05-10T09:23:13;13.2;;;11.2;;
50651;SDS011;66928;52.086;5.240;2023-05-10T09:25:03;12.3;;;11.0;;
50651;SDS011;66928;52.086;5.240;2023-05-10T09:26:45;13.7;;;10.9;;
50651;SDS011;66928;52.086;5.240;2023-05-10T09:30:02;13.2;;;10.7;;
50651;SDS011;66928;52.086;5.240;2023-05-10T09:31:44;12.5;;;11.2;;
50651;SDS011;66928;52.086;5.240;2023-05-10T09:33:23;13.2;;;11.2;;
50651;SDS011;66928;52.086;5.240;2023-05-10T09:35:05;12.6;;;11.1;;
50651;SDS011;66928;52.086;5.240;2023-05-10T09:38:35;12.5;;;11.2;;
50651;SDS011;66928;52.086;5.240;2023-05-10T09:40:23;12.3;;;11.0;;
50651;SDS011;66928;52.086;5.240;2023-05-10T09:42:03;13.5;;;12.0;;
50651;SDS011;66928;52.086;5.240;2023-05-10T09:43:42;12.5;;;10.8;;
50651;SDS011;66928;52.086;5.240;2023-05-10T09:46:57;13.2;;;11.5;;
50651;SDS011;66928;52.086;5.240;2023-05-10T09:48:38;13.2;;;11.4;;
50651;SDS011;66928;52.086;5.240;2023-05-10T09:50:19;12.2;;;11.0;;
50651;SDS011;66928;52.086;5.240;2023-05-10T09:51:59;13.7;;;11.4;;
50651;SDS011;66928;52.086;5.240;2023-05-10T09:55:16;13.5;;;11.7;;
50651;SDS011;66928;52.086;5.240;2023-05-10T09:56:55;13.9;;;11.3;;
50651;SDS011;66928;52.086;5.240;2023-05-10T09:58:34;13.1;;;11.4;;
50651;SDS011;66928;52.086;5.240;2023-05-10T10:00:16;13.4;;;10.9;;
50651;SDS011;66928;52.086;5.240;2023-05-10T10:03:40;13.3;;;11.2;;
50651;SDS011;66928;52.086;5.240;2023-05-10T10:05:19;11.0;;;9.21;;
50651;SDS011;66928;52.086;5.240;2023-05-10T10:06:58;11.7;;;9.6;;
50651;SDS011;66928;52.086;5.240;2023-05-10T10:08:37;11.1;;;9.71;;
50651;SDS011;66928;52.086;5.240;2023-05-10T10:11:53;10.6;;;9.5;;
50651;SDS011;66928;52.086;5.240;2023-05-10T10:13:31;10.6;;;9.21;;
50651;SDS011;66928;52.086;5.240;2023-05-10T10:15:09;9.9;;;9.0;;
50651;SDS011;66928;52.086;5.240;2023-05-10T10:16:47;9.6;;;8.6;;
50651;SDS011;66928;52.086;5.240;2023-05-10T10:20:05;8.0;;;7.1;;
50651;SDS011;66928;52.086;5.240;2023-05-10T10:21:43;7.8;;;6.6;;
50651;SDS011;66928;52.086;5.240;2023-05-10T10:23:20;7.9;;;6.5;;
50651;SDS011;66928;52.086;5.240;2023-05-10T10:26:36;6.8;;;6.1;;
50651;SDS011;66928;52.086;5.240;2023-05-10T10:28:17;8.0;;;6.9;;
50651;SDS011;66928;52.086;5.240;2023-05-10T10:30:06;7.5;;;6.4;;
50651;SDS011;66928;52.086;5.240;2023-05-10T10:31:55;7.5;;;6.7;;
50651;SDS011;66928;52.086;5.240;2023-05-10T10:33:47;7.4;;;6.2;;
50651;SDS011;66928;52.086;5.240;2023-05-10T10:35:36;6.9;;;6.1;;
50651;SDS011;66928;52.086;5.240;2023-05-10T10:38:55;5.8;;;5.2;;
50651;SDS011;66928;52.086;5.240;2023-05-10T10:40:33;5.8;;;5.3;;
50651;SDS011;66928;52.086;5.240;2023-05-10T10:42:11;6.5;;;5.9;;
50651;SDS011;66928;52.086;5.240;2023-05-10T10:45:26;8.4;;;6.1;;
50651;SDS011;66928;52.086;5.240;2023-05-10T10:47:05;8.4;;;6.1;;
50651;SDS011;66928;52.086;5.240;2023-05-10T10:48:47;6.8;;;6.2;;
50651;SDS011;66928;52.086;5.240;2023-05-10T10:50:25;6.3;;;5.7;;
50651;SDS011;66928;52.086;5.240;2023-05-10T10:54:08;6.5;;;5.8;;
50651;SDS011;66928;52.086;5.240;2023-05-10T10:55:46;6.4;;;5.8;;
50651;SDS011;66928;52.086;5.240;2023-05-10T10:57:26;6.9;;;6.2;;
50651;SDS011;66928;52.086;5.240;2023-05-10T10:59:03;6.5;;;5.8;;
50651;SDS011;66928;52.086;5.240;2023-05-10T11:00:39;8.5;;;6.0;;
50651;SDS011;66928;52.086;5.240;2023-05-10T11:04:26;6.8;;;6.1;;
50651;SDS011;66928;52.086;5.240;2023-05-10T11:06:02;7.1;;;6.0;;
50651;SDS011;66928;52.086;5.240;2023-05-10T11:07:49;6.4;;;5.8;;
50651;SDS011;66928;52.086;5.240;2023-05-10T11:09:26;7.3;;;6.5;;
50651;SDS011;66928;52.086;5.240;2023-05-10T11:12:50;6.9;;;6.2;;
50651;SDS011;66928;52.086;5.240;2023-05-10T11:14:27;7.1;;;6.4;;
50651;SDS011;66928;52.086;5.240;2023-05-10T11:16:11;6.8;;;6.0;;
50651;SDS011;66928;52.086;5.240;2023-05-10T11:17:50;6.7;;;6.1;;
50651;SDS011;66928;52.086;5.240;2023-05-10T11:21:03;6.4;;;5.5;;
50651;SDS011;66928;52.086;5.240;2023-05-10T11:22:55;6.3;;;5.7;;
50651;SDS011;66928;52.086;5.240;2023-05-10T11:24:31;6.3;;;5.7;;
50651;SDS011;66928;52.086;5.240;2023-05-10T11:26:07;7.0;;;6.0;;
50651;SDS011;66928;52.086;5.240;2023-05-10T11:29:23;4.91;;;4.3;;
50651;SDS011;66928;52.086;5.240;2023-05-10T11:30:59;6.3;;;5.4;;
50651;SDS011;66928;52.086;5.240;2023-05-10T11:32:36;6.3;;;5.7;;
50651;SDS011;66928;52.086;5.240;2023-05-10T11:34:22;6.1;;;5.4;;
50651;SDS011;66928;52.086;5.240;2023-05-10T11:37:36;6.7;;;5.6;;
50651;SDS011;66928;52.086;5.240;2023-05-10T11:39:12;6.1;;;5.6;;
50651;SDS011;66928;52.086;5.240;2023-05-10T11:40:49;7.2;;;6.1;;
50651;SDS011;66928;52.086;5.240;2023-05-10T11:44:04;7.0;;;6.3;;
50651;SDS011;66928;52.086;5.240;2023-05-10T11:45:40;6.3;;;5.7;;
50651;SDS011;66928;52.086;5.240;2023-05-10T11:47:18;7.1;;;6.1;;
50651;SDS011;66928;52.086;5.240;2023-05-10T11:48:55;9.4;;;6.2;;
50651;SDS011;66928;52.086;5.240;2023-05-10T11:52:10;6.6;;;5.7;;
50651;SDS011;66928;52.086;5.240;2023-05-10T11:53:47;5.8;;;4.91;;
50651;SDS011;66928;52.086;5.240;2023-05-10T11:55:25;6.3;;;4.8;;
50651;SDS011;66928;52.086;5.240;2023-05-10T11:58:37;5.7;;;4.3;;
50651;SDS011;66928;52.086;5.240;2023-05-10T12:00:15;5.5;;;4.5;;
50651;SDS011;66928;52.086;5.240;2023-05-10T12:01:51;5.6;;;4.61;;
50651;SDS011;66928;52.086;5.240;2023-05-10T12:03:28;4.8;;;4.3;;
50651;SDS011;66928;52.086;5.240;2023-05-10T12:06:43;6.2;;;5.0;;
50651;SDS011;66928;52.086;5.240;2023-05-10T12:08:20;5.5;;;4.3;;
50651;SDS011;66928;52.086;5.240;2023-05-10T12:10:06;6.3;;;4.61;;
50651;SDS011;66928;52.086;5.240;2023-05-10T12:13:20;6.0;;;4.91;;
50651;SDS011;66928;52.086;5.240;2023-05-10T12:14:56;5.7;;;4.8;;
50651;SDS011;66928;52.086;5.240;2023-05-10T12:16:33;5.7;;;4.61;;
50651;SDS011;66928;52.086;5.240;2023-05-10T12:18:09;4.61;;;3.9;;
50651;SDS011;66928;52.086;5.240;2023-05-10T12:21:22;5.3;;;4.1;;
50651;SDS011;66928;52.086;5.240;2023-05-10T12:22:58;5.5;;;4.3;;
50651;SDS011;66928;52.086;5.240;2023-05-10T12:24:34;4.3;;;3.9;;
50651;SDS011;66928;52.086;5.240;2023-05-10T12:27:50;6.2;;;4.41;;
50651;SDS011;66928;52.086;5.240;2023-05-10T12:29:29;5.8;;;4.41;;
50651;SDS011;66928;52.086;5.240;2023-05-10T12:31:06;5.7;;;4.5;;
50651;SDS011;66928;52.086;5.240;2023-05-10T12:32:43;5.0;;;4.5;;
50651;SDS011;66928;52.086;5.240;2023-05-10T12:36:00;6.5;;;5.9;;
50651;SDS011;66928;52.086;5.240;2023-05-10T12:37:37;7.4;;;6.7;;
50651;SDS011;66928;52.086;5.240;2023-05-10T12:39:14;7.0;;;6.4;;
50651;SDS011;66928;52.086;5.240;2023-05-10T12:42:26;7.8;;;6.7;;
50651;SDS011;66928;52.086;5.240;2023-05-10T12:44:02;7.3;;;6.6;;
50651;SDS011;66928;52.086;5.240;2023-05-10T12:45:38;7.1;;;6.4;;
50651;SDS011;66928;52.086;5.240;2023-05-10T12:48:50;8.31;;;7.5;;
50651;SDS011;66928;52.086;5.240;2023-05-10T12:50:27;7.2;;;6.3;;
50651;SDS011;66928;52.086;5.240;2023-05-10T12:52:03;6.8;;;6.2;;
50651;SDS011;66928;52.086;5.240;2023-05-10T12:53:39;8.81;;;8.0;;
50651;SDS011;66928;52.086;5.240;2023-05-10T12:56:51;11.3;;;9.81;;
50651;SDS011;66928;52.086;5.240;2023-05-10T12:58:28;11.2;;;9.81;;
50651;SDS011;66928;52.086;5.240;2023-05-10T13:00:04;12.2;;;9.71;;
50651;SDS011;66928;52.086;5.240;2023-05-10T13:03:18;12.2;;;10.7;;
50651;SDS011;66928;52.086;5.240;2023-05-10T13:04:54;14.0;;;10.1;;
50651;SDS011;66928;52.086;5.240;2023-05-10T13:06:30;14.0;;;10.1;;
50651;SDS011;66928;52.086;5.240;2023-05-10T13:09:43;13.9;;;10.6;;
50651;SDS011;66928;52.086;5.240;2023-05-10T13:11:19;11.5;;;10.3;;
50651;SDS011;66928;52.086;5.240;2023-05-10T13:12:55;12.5;;;9.9;;
50651;SDS011;66928;52.086;5.240;2023-05-10T13:14:31;13.7;;;10.4;;
50651;SDS011;66928;52.086;5.240;2023-05-10T13:17:43;13.2;;;11.1;;
50651;SDS011;66928;52.086;5.240;2023-05-10T13:19:20;15.4;;;12.1;;
50651;SDS011;66928;52.086;5.240;2023-05-10T13:20:56;15.3;;;11.4;;
50651;SDS011;66928;52.086;5.240;2023-05-10T13:24:08;14.2;;;11.3;;
50651;SDS011;66928;52.086;5.240;2023-05-10T13:25:44;15.1;;;11.8;;
50651;SDS011;66928;52.086;5.240;2023-05-10T13:27:20;15.3;;;12.8;;
50651;SDS011;66928;52.086;5.240;2023-05-10T13:30:33;14.1;;;11.8;;
50651;SDS011;66928;52.086;5.240;2023-05-10T13:32:09;16.2;;;12.6;;
50651;SDS011;66928;52.086;5.240;2023-05-10T13:33:45;15.0;;;12.3;;
50651;SDS011;66928;52.086;5.240;2023-05-10T13:36:57;16.7;;;13.3;;
50651;SDS011;66928;52.086;5.240;2023-05-10T13:38:33;17.41;;;13.8;;
50651;SDS011;66928;52.086;5.240;2023-05-10T13:40:10;16.11;;;12.9;;
50651;SDS011;66928;52.086;5.240;2023-05-10T13:41:46;19.7;;;14.2;;
50651;SDS011;66928;52.086;5.240;2023-05-10T13:45:00;17.61;;;13.5;;
50651;SDS011;66928;52.086;5.240;2023-05-10T13:46:36;17.5;;;13.8;;
50651;SDS011;66928;52.086;5.240;2023-05-10T13:48:12;18.2;;;13.8;;
50651;SDS011;66928;52.086;5.240;2023-05-10T13:51:26;17.61;;;13.5;;
50651;SDS011;66928;52.086;5.240;2023-05-10T13:53:02;17.41;;;13.2;;
50651;SDS011;66928;52.086;5.240;2023-05-10T13:54:38;16.3;;;12.3;;
50651;SDS011;66928;52.086;5.240;2023-05-10T13:57:50;17.5;;;13.1;;
50651;SDS011;66928;52.086;5.240;2023-05-10T13:59:26;15.7;;;12.0;;
50651;SDS011;66928;52.086;5.240;2023-05-10T14:01:04;15.9;;;12.2;;
50651;SDS011;66928;52.086;5.240;2023-05-10T14:02:40;16.3;;;12.2;;
50651;SDS011;66928;52.086;5.240;2023-05-10T14:05:52;14.8;;;11.7;;
50651;SDS011;66928;52.086;5.240;2023-05-10T14:07:28;14.8;;;11.7;;
50651;SDS011;66928;52.086;5.240;2023-05-10T14:09:04;15.8;;;13.1;;
50651;SDS011;66928;52.086;5.240;2023-05-10T14:12:17;15.0;;;11.8;;
50651;SDS011;66928;52.086;5.240;2023-05-10T14:13:53;14.8;;;11.6;;
50651;SDS011;66928;52.086;5.240;2023-05-10T14:15:29;15.1;;;11.5;;
50651;SDS011;66928;52.086;5.240;2023-05-10T14:18:41;16.5;;;11.6;;
50651;SDS011;66928;52.086;5.240;2023-05-10T14:20:17;15.1;;;12.0;;
50651;SDS011;66928;52.086;5.240;2023-05-10T14:21:54;14.4;;;11.2;;
50651;SDS011;66928;52.086;5.240;2023-05-10T14:25:06;13.7;;;11.5;;
50651;SDS011;66928;52.086;5.240;2023-05-10T14:26:43;13.8;;;11.5;;
50651;SDS011;66928;52.086;5.240;2023-05-10T14:28:19;13.2;;;10.9;;
50651;SDS011;66928;52.086;5.240;2023-05-10T14:29:55;13.4;;;10.9;;
50651;SDS011;66928;52.086;5.240;2023-05-10T14:33:08;12.6;;;10.6;;
50651;SDS011;66928;52.086;5.240;2023-05-10T14:34:46;14.3;;;10.6;;
50651;SDS011;66928;52.086;5.240;2023-05-10T14:36:22;13.0;;;10.1;;
50651;SDS011;66928;52.086;5.240;2023-05-10T14:39:34;12.9;;;10.0;;
50651;SDS011;66928;52.086;5.240;2023-05-10T14:41:10;10.3;;;9.1;;
50651;SDS011;66928;52.086;5.240;2023-05-10T14:42:47;11.7;;;8.9;;
50651;SDS011;66928;52.086;5.240;2023-05-10T14:45:59;9.6;;;8.5;;
50651;SDS011;66928;52.086;5.240;2023-05-10T14:47:35;11.4;;;9.5;;
50651;SDS011;66928;52.086;5.240;2023-05-10T14:49:11;10.3;;;8.81;;
50651;SDS011;66928;52.086;5.240;2023-05-10T14:50:48;10.7;;;8.9;;
50651;SDS011;66928;52.086;5.240;2023-05-10T14:54:00;13.1;;;9.71;;
50651;SDS011;66928;52.086;5.240;2023-05-10T14:55:36;10.7;;;8.71;;
50651;SDS011;66928;52.086;5.240;2023-05-10T14:57:12;12.0;;;8.9;;
50651;SDS011;66928;52.086;5.240;2023-05-10T15:00:26;10.6;;;8.81;;
50651;SDS011;66928;52.086;5.240;2023-05-10T15:02:03;9.6;;;8.5;;
50651;SDS011;66928;52.086;5.240;2023-05-10T15:03:39;11.7;;;9.5;;
50651;SDS011;66928;52.086;5.240;2023-05-10T15:06:51;11.9;;;9.31;;
50651;SDS011;66928;52.086;5.240;2023-05-10T15:08:27;11.5;;;9.5;;
50651;SDS011;66928;52.086;5.240;2023-05-10T15:10:04;10.6;;;9.31;;
50651;SDS011;66928;52.086;5.240;2023-05-10T15:11:41;11.4;;;9.6;;
50651;SDS011;66928;52.086;5.240;2023-05-10T15:14:53;9.9;;;8.9;;
50651;SDS011;66928;52.086;5.240;2023-05-10T15:16:29;10.3;;;9.1;;
50651;SDS011;66928;52.086;5.240;2023-05-10T15:18:05;9.9;;;8.9;;
50651;SDS011;66928;52.086;5.240;2023-05-10T15:21:17;11.1;;;9.6;;
50651;SDS011;66928;52.086;5.240;2023-05-10T15:22:54;10.8;;;9.0;;
50651;SDS011;66928;52.086;5.240;2023-05-10T15:24:30;11.0;;;9.81;;
50651;SDS011;66928;52.086;5.240;2023-05-10T15:27:43;12.5;;;9.1;;
50651;SDS011;66928;52.086;5.240;2023-05-10T15:29:19;10.7;;;9.6;;
50651;SDS011;66928;52.086;5.240;2023-05-10T15:30:55;10.1;;;8.9;;
50651;SDS011;66928;52.086;5.240;2023-05-10T15:34:08;10.4;;;8.81;;
50651;SDS011;66928;52.086;5.240;2023-05-10T15:35:44;10.9;;;9.1;;
50651;SDS011;66928;52.086;5.240;2023-05-10T15:37:20;10.3;;;8.4;;
50651;SDS011;66928;52.086;5.240;2023-05-10T15:38:56;9.81;;;8.1;;
50651;SDS011;66928;52.086;5.240;2023-05-10T15:42:09;10.0;;;8.5;;
50651;SDS011;66928;52.086;5.240;2023-05-10T15:43:45;10.5;;;8.5;;
50651;SDS011;66928;52.086;5.240;2023-05-10T15:45:21;12.0;;;9.1;;
50651;SDS011;66928;52.086;5.240;2023-05-10T15:48:33;9.71;;;7.6;;
50651;SDS011;66928;52.086;5.240;2023-05-10T15:50:10;8.31;;;7.2;;
50651;SDS011;66928;52.086;5.240;2023-05-10T15:51:46;9.0;;;7.5;;
50651;SDS011;66928;52.086;5.240;2023-05-10T15:54:59;9.21;;;7.9;;
50651;SDS011;66928;52.086;5.240;2023-05-10T15:56:35;8.6;;;7.7;;
50651;SDS011;66928;52.086;5.240;2023-05-10T15:58:11;10.7;;;8.81;;
50651;SDS011;66928;52.086;5.240;2023-05-10T15:59:47;11.2;;;8.5;;
50651;SDS011;66928;52.086;5.240;2023-05-10T16:03:00;10.21;;;8.0;;
50651;SDS011;66928;52.086;5.240;2023-05-10T16:04:36;9.9;;;7.9;;
50651;SDS011;66928;52.086;5.240;2023-05-10T16:06:12;8.9;;;8.0;;
50651;SDS011;66928;52.086;5.240;2023-05-10T16:09:24;10.4;;;8.5;;
50651;SDS011;66928;52.086;5.240;2023-05-10T16:11:00;9.4;;;7.8;;
50651;SDS011;66928;52.086;5.240;2023-05-10T16:12:37;9.31;;;7.9;;
50651;SDS011;66928;52.086;5.240;2023-05-10T16:15:50;10.4;;;8.4;;
50651;SDS011;66928;52.086;5.240;2023-05-10T16:17:26;9.5;;;8.2;;
50651;SDS011;66928;52.086;5.240;2023-05-10T16:19:02;8.81;;;7.9;;
50651;SDS011;66928;52.086;5.240;2023-05-10T16:22:14;9.5;;;8.5;;
50651;SDS011;66928;52.086;5.240;2023-05-10T16:23:51;9.6;;;8.6;;
50651;SDS011;66928;52.086;5.240;2023-05-10T16:25:27;12.1;;;9.71;;
50651;SDS011;66928;52.086;5.240;2023-05-10T16:27:03;10.6;;;9.5;;
50651;SDS011;66928;52.086;5.240;2023-05-10T16:30:15;10.0;;;8.5;;
50651;SDS011;66928;52.086;5.240;2023-05-10T16:31:51;11.3;;;9.1;;
50651;SDS011;66928;52.086;5.240;2023-05-10T16:33:28;11.6;;;9.31;;
50651;SDS011;66928;52.086;5.240;2023-05-10T16:36:41;10.5;;;9.4;;
50651;SDS011;66928;52.086;5.240;2023-05-10T16:38:17;9.6;;;8.6;;
50651;SDS011;66928;52.086;5.240;2023-05-10T16:39:53;10.1;;;8.6;;
50651;SDS011;66928;52.086;5.240;2023-05-10T16:43:07;9.31;;;8.31;;
50651;SDS011;66928;52.086;5.240;2023-05-10T16:46:20;10.21;;;8.9;;
50651;SDS011;66928;52.086;5.240;2023-05-10T16:47:56;11.0;;;9.21;;
50651;SDS011;66928;52.086;5.240;2023-05-10T16:51:10;11.1;;;8.81;;
50651;SDS011;66928;52.086;5.240;2023-05-10T16:52:46;11.8;;;10.0;;
50651;SDS011;66928;52.086;5.240;2023-05-10T16:54:23;11.3;;;9.71;;
50651;SDS011;66928;52.086;5.240;2023-05-10T16:57:35;11.0;;;9.81;;
50651;SDS011;66928;52.086;5.240;2023-05-10T16:59:11;10.9;;;9.81;;
50651;SDS011;66928;52.086;5.240;2023-05-10T17:00:47;10.9;;;9.81;;
50651;SDS011;66928;52.086;5.240;2023-05-10T17:03:59;11.8;;;9.5;;
50651;SDS011;66928;52.086;5.240;2023-05-10T17:05:36;11.3;;;9.71;;
50651;SDS011;66928;52.086;5.240;2023-05-10T17:07:12;10.0;;;8.9;;
50651;SDS011;66928;52.086;5.240;2023-05-10T17:12:00;10.6;;;9.4;;
50651;SDS011;66928;52.086;5.240;2023-05-10T17:13:36;10.8;;;9.71;;
50651;SDS011;66928;52.086;5.240;2023-05-10T17:15:13;10.8;;;9.5;;
50651;SDS011;66928;52.086;5.240;2023-05-10T17:18:25;10.1;;;9.0;;
50651;SDS011;66928;52.086;5.240;2023-05-10T17:20:01;12.3;;;9.9;;
50651;SDS011;66928;52.086;5.240;2023-05-10T17:21:37;10.7;;;9.6;;
50651;SDS011;66928;52.086;5.240;2023-05-10T17:24:49;10.8;;;9.6;;
50651;SDS011;66928;52.086;5.240;2023-05-10T17:26:26;10.21;;;8.9;;
50651;SDS011;66928;52.086;5.240;2023-05-10T17:28:02;10.4;;;9.21;;
50651;SDS011;66928;52.086;5.240;2023-05-10T17:31:15;12.8;;;9.71;;
50651;SDS011;66928;52.086;5.240;2023-05-10T17:32:51;10.8;;;9.21;;
50651;SDS011;66928;52.086;5.240;2023-05-10T17:34:27;11.9;;;10.4;;
50651;SDS011;66928;52.086;5.240;2023-05-10T17:36:04;10.4;;;9.31;;
50651;SDS011;66928;52.086;5.240;2023-05-10T17:39:16;12.6;;;10.21;;
50651;SDS011;66928;52.086;5.240;2023-05-10T17:40:52;11.2;;;9.5;;
50651;SDS011;66928;52.086;5.240;2023-05-10T17:42:28;11.8;;;10.0;;
50651;SDS011;66928;52.086;5.240;2023-05-10T17:45:40;11.2;;;9.9;;
50651;SDS011;66928;52.086;5.240;2023-05-10T17:47:16;12.1;;;10.1;;
50651;SDS011;66928;52.086;5.240;2023-05-10T17:48:53;12.1;;;9.4;;
50651;SDS011;66928;52.086;5.240;2023-05-10T17:52:06;11.1;;;9.1;;
50651;SDS011;66928;52.086;5.240;2023-05-10T17:53:42;9.5;;;7.8;;
50651;SDS011;66928;52.086;5.240;2023-05-10T17:55:18;10.1;;;8.81;;
50651;SDS011;66928;52.086;5.240;2023-05-10T17:58:30;10.8;;;8.71;;
50651;SDS011;66928;52.086;5.240;2023-05-10T18:00:07;10.21;;;8.1;;
50651;SDS011;66928;52.086;5.240;2023-05-10T18:01:44;12.3;;;9.31;;
50651;SDS011;66928;52.086;5.240;2023-05-10T18:03:20;10.3;;;8.5;;
50651;SDS011;66928;52.086;5.240;2023-05-10T18:06:34;10.1;;;8.71;;
50651;SDS011;66928;52.086;5.240;2023-05-10T18:08:10;10.1;;;8.6;;
50651;SDS011;66928;52.086;5.240;2023-05-10T18:09:46;12.1;;;9.31;;
50651;SDS011;66928;52.086;5.240;2023-05-10T18:12:59;10.9;;;8.71;;
50651;SDS011;66928;52.086;5.240;2023-05-10T18:14:35;10.21;;;8.9;;
50651;SDS011;66928;52.086;5.240;2023-05-10T18:16:11;11.2;;;9.9;;
50651;SDS011;66928;52.086;5.240;2023-05-10T18:19:24;10.6;;;9.5;;
50651;SDS011;66928;52.086;5.240;2023-05-10T18:21:00;10.6;;;9.5;;
50651;SDS011;66928;52.086;5.240;2023-05-10T18:22:37;12.9;;;10.21;;
50651;SDS011;66928;52.086;5.240;2023-05-10T18:24:13;10.5;;;9.4;;
50651;SDS011;66928;52.086;5.240;2023-05-10T18:27:25;10.9;;;9.31;;
50651;SDS011;66928;52.086;5.240;2023-05-10T18:29:01;10.6;;;9.5;;
50651;SDS011;66928;52.086;5.240;2023-05-10T18:30:37;10.8;;;9.5;;
50651;SDS011;66928;52.086;5.240;2023-05-10T18:33:51;12.4;;;10.0;;
50651;SDS011;66928;52.086;5.240;2023-05-10T18:35:27;11.4;;;9.81;;
50651;SDS011;66928;52.086;5.240;2023-05-10T18:37:03;12.1;;;9.6;;